sensor_id;sensor_type;location;lat;lon;timestamp;pressure;altitude;pressure_sealevel;temperature;humidity
20105;BME280;10212;42.714;23.310;2023-08-31T00:05:52;94677.84;;;19.03;66.62
20105;BME280;10212;42.714;23.310;2023-08-31T00:15:56;94682.34;;;19.13;65.18
20105;BME280;10212;42.714;23.310;2023-08-31T00:25:59;94689.75;;;18.90;67.46
20105;BME280;10212;42.714;23.310;2023-08-31T00:36:00;94691.75;;;18.04;72.09
20105;BME280;10212;42.714;23.310;2023-08-31T00:46:04;94710.50;;;18.13;71.49
20105;BME280;10212;42.714;23.310;2023-08-31T00:56:04;94706.00;;;18.08;71.33
20105;BME280;10212;42.714;23.310;2023-08-31T01:16:27;94715.22;;;18.06;72.13
20105;BME280;10212;42.714;23.310;2023-08-31T01:26:29;94715.59;;;18.20;71.80
20105;BME280;10212;42.714;23.310;2023-08-31T01:36:32;94716.09;;;18.22;71.86
20105;BME280;10212;42.714;23.310;2023-08-31T01:46:35;94714.25;;;18.28;71.57
20105;BME280;10212;42.714;23.310;2023-08-31T01:56:35;94732.06;;;17.89;74.17
20105;BME280;10212;42.714;23.310;2023-08-31T02:06:36;94740.19;;;17.72;75.48
20105;BME280;10212;42.714;23.310;2023-08-31T02:16:36;94737.53;;;17.72;75.33
20105;BME280;10212;42.714;23.310;2023-08-31T02:26:36;94726.50;;;17.80;74.82
20105;BME280;10212;42.714;23.310;2023-08-31T02:36:37;94725.38;;;17.71;75.53
20105;BME280;10212;42.714;23.310;2023-08-31T02:46:38;94737.22;;;17.58;76.79
20105;BME280;10212;42.714;23.310;2023-08-31T02:56:38;94744.50;;;17.40;77.36
20105;BME280;10212;42.714;23.310;2023-08-31T03:06:39;94750.53;;;17.41;77.91
20105;BME280;10212;42.714;23.310;2023-08-31T03:16:39;94765.31;;;17.42;78.28
20105;BME280;10212;42.714;23.310;2023-08-31T03:26:40;94765.53;;;17.35;78.29
20105;BME280;10212;42.714;23.310;2023-08-31T03:36:40;94768.59;;;16.88;80.54
20105;BME280;10212;42.714;23.310;2023-08-31T03:46:41;94782.41;;;16.46;82.43
20105;BME280;10212;42.714;23.310;2023-08-31T03:56:42;94786.28;;;16.38;83.31
20105;BME280;10212;42.714;23.310;2023-08-31T04:06:42;94809.13;;;16.32;84.24
20105;BME280;10212;42.714;23.310;2023-08-31T04:16:43;94835.66;;;16.53;83.32
20105;BME280;10212;42.714;23.310;2023-08-31T04:26:44;94836.25;;;16.60;83.91
20105;BME280;10212;42.714;23.310;2023-08-31T04:36:45;94835.59;;;16.48;84.35
20105;BME280;10212;42.714;23.310;2023-08-31T04:46:45;94850.22;;;16.38;85.51
20105;BME280;10212;42.714;23.310;2023-08-31T04:56:46;94854.28;;;16.74;84.21
20105;BME280;10212;42.714;23.310;2023-08-31T05:06:46;94854.47;;;17.17;82.34
20105;BME280;10212;42.714;23.310;2023-08-31T05:16:46;94870.09;;;17.62;79.21
20105;BME280;10212;42.714;23.310;2023-08-31T05:26:49;94864.16;;;17.82;77.79
20105;BME280;10212;42.714;23.310;2023-08-31T05:36:49;94857.84;;;18.27;76.55
20105;BME280;10212;42.714;23.310;2023-08-31T05:46:50;94859.00;;;18.57;73.77
20105;BME280;10212;42.714;23.310;2023-08-31T05:56:50;94858.22;;;18.67;73.54
20105;BME280;10212;42.714;23.310;2023-08-31T06:06:51;94862.75;;;18.82;73.10
20105;BME280;10212;42.714;23.310;2023-08-31T06:16:54;94884.69;;;18.88;72.64
20105;BME280;10212;42.714;23.310;2023-08-31T06:26:54;94897.63;;;18.95;68.99
20105;BME280;10212;42.714;23.310;2023-08-31T06:36:56;94900.88;;;19.12;68.04
20105;BME280;10212;42.714;23.310;2023-08-31T06:46:58;94912.78;;;19.36;65.94
20105;BME280;10212;42.714;23.310;2023-08-31T06:56:58;94905.41;;;19.69;65.39
20105;BME280;10212;42.714;23.310;2023-08-31T07:06:59;94913.28;;;20.00;63.05
20105;BME280;10212;42.714;23.310;2023-08-31T07:16:59;94917.97;;;20.51;61.83
20105;BME280;10212;42.714;23.310;2023-08-31T07:27:02;94921.66;;;20.60;63.29
20105;BME280;10212;42.714;23.310;2023-08-31T07:37:02;94929.00;;;20.73;61.65
20105;BME280;10212;42.714;23.310;2023-08-31T07:47:04;94914.94;;;20.83;60.84
20105;BME280;10212;42.714;23.310;2023-08-31T07:57:05;94921.81;;;21.30;59.15
20105;BME280;10212;42.714;23.310;2023-08-31T08:07:06;94920.13;;;21.85;55.93
20105;BME280;10212;42.714;23.310;2023-08-31T08:17:06;94924.88;;;22.42;54.50
20105;BME280;10212;42.714;23.310;2023-08-31T08:27:06;94917.59;;;22.53;52.22
20105;BME280;10212;42.714;23.310;2023-08-31T08:37:07;94914.88;;;23.02;47.01
20105;BME280;10212;42.714;23.310;2023-08-31T08:47:07;94925.66;;;23.30;42.58
20105;BME280;10212;42.714;23.310;2023-08-31T08:57:08;94923.78;;;23.31;49.56
20105;BME280;10212;42.714;23.310;2023-08-31T09:07:08;94915.94;;;23.92;45.72
20105;BME280;10212;42.714;23.310;2023-08-31T09:17:09;94914.38;;;23.72;41.74
20105;BME280;10212;42.714;23.310;2023-08-31T09:27:10;94920.06;;;23.99;41.48
20105;BME280;10212;42.714;23.310;2023-08-31T09:37:11;94916.41;;;24.28;40.49
20105;BME280;10212;42.714;23.310;2023-08-31T09:47:13;94919.28;;;24.31;39.60
20105;BME280;10212;42.714;23.310;2023-08-31T09:57:14;94914.94;;;24.36;38.23
20105;BME280;10212;42.714;23.310;2023-08-31T10:07:17;94914.44;;;24.48;37.39
20105;BME280;10212;42.714;23.310;2023-08-31T10:17:17;94908.19;;;24.95;36.58
20105;BME280;10212;42.714;23.310;2023-08-31T10:27:19;94899.91;;;25.19;34.67
20105;BME280;10212;42.714;23.310;2023-08-31T10:37:20;94909.72;;;25.93;34.22
20105;BME280;10212;42.714;23.310;2023-08-31T10:47:36;94913.38;;;26.06;34.89
20105;BME280;10212;42.714;23.310;2023-08-31T10:57:37;94924.13;;;25.46;37.29
20105;BME280;10212;42.714;23.310;2023-08-31T11:07:40;94914.72;;;25.25;38.00
20105;BME280;10212;42.714;23.310;2023-08-31T11:17:42;94929.00;;;25.07;38.09
20105;BME280;10212;42.714;23.310;2023-08-31T11:27:55;94912.19;;;25.20;37.13
20105;BME280;10212;42.714;23.310;2023-08-31T11:37:57;94917.03;;;25.41;37.99
20105;BME280;10212;42.714;23.310;2023-08-31T11:47:58;94927.91;;;25.45;40.11
20105;BME280;10212;42.714;23.310;2023-08-31T11:57:58;94913.75;;;25.21;40.43
20105;BME280;10212;42.714;23.310;2023-08-31T12:07:59;94906.84;;;25.20;39.29
20105;BME280;10212;42.714;23.310;2023-08-31T12:18:06;94905.44;;;25.46;39.86
20105;BME280;10212;42.714;23.310;2023-08-31T12:28:07;94895.78;;;25.13;40.21
20105;BME280;10212;42.714;23.310;2023-08-31T12:38:07;94894.72;;;25.37;39.08
20105;BME280;10212;42.714;23.310;2023-08-31T12:48:08;94889.50;;;25.77;37.94
20105;BME280;10212;42.714;23.310;2023-08-31T12:58:08;94895.78;;;26.05;37.49
20105;BME280;10212;42.714;23.310;2023-08-31T13:08:09;94889.53;;;25.86;37.41
20105;BME280;10212;42.714;23.310;2023-08-31T13:18:09;94893.59;;;26.47;36.77
20105;BME280;10212;42.714;23.310;2023-08-31T13:28:09;94893.91;;;26.37;35.94
20105;BME280;10212;42.714;23.310;2023-08-31T13:38:10;94897.94;;;27.02;33.62
20105;BME280;10212;42.714;23.310;2023-08-31T13:48:10;94891.31;;;26.72;33.82
20105;BME280;10212;42.714;23.310;2023-08-31T13:58:11;94893.97;;;26.72;33.81
20105;BME280;10212;42.714;23.310;2023-08-31T14:08:12;94913.13;;;26.66;33.55
20105;BME280;10212;42.714;23.310;2023-08-31T14:18:13;94942.06;;;25.68;35.68
20105;BME280;10212;42.714;23.310;2023-08-31T14:28:13;94948.63;;;25.25;36.43
20105;BME280;10212;42.714;23.310;2023-08-31T14:38:20;94960.59;;;24.71;39.44
20105;BME280;10212;42.714;23.310;2023-08-31T14:48:20;94972.78;;;24.16;40.20
20105;BME280;10212;42.714;23.310;2023-08-31T14:58:21;94993.28;;;24.01;40.25
20105;BME280;10212;42.714;23.310;2023-08-31T15:08:22;94987.09;;;23.87;39.74
20105;BME280;10212;42.714;23.310;2023-08-31T15:18:35;94997.22;;;23.51;41.11
20105;BME280;10212;42.714;23.310;2023-08-31T15:28:35;95029.28;;;23.16;45.30
20105;BME280;10212;42.714;23.310;2023-08-31T15:38:37;95033.53;;;21.68;60.58
20105;BME280;10212;42.714;23.310;2023-08-31T15:48:37;95051.47;;;20.44;69.41
20105;BME280;10212;42.714;23.310;2023-08-31T15:58:38;95058.91;;;20.16;68.71
20105;BME280;10212;42.714;23.310;2023-08-31T16:08:38;95070.25;;;20.32;68.37
20105;BME280;10212;42.714;23.310;2023-08-31T16:18:39;95065.22;;;20.26;65.11
20105;BME280;10212;42.714;23.310;2023-08-31T16:28:39;95073.69;;;20.33;61.98
20105;BME280;10212;42.714;23.310;2023-08-31T16:38:39;95057.78;;;20.69;56.25
20105;BME280;10212;42.714;23.310;2023-08-31T16:48:40;95063.28;;;20.89;57.17
20105;BME280;10212;42.714;23.310;2023-08-31T16:58:40;95078.91;;;21.01;59.30
20105;BME280;10212;42.714;23.310;2023-08-31T17:08:41;95070.47;;;20.78;61.51
20105;BME280;10212;42.714;23.310;2023-08-31T17:18:41;95080.53;;;19.87;66.35
20105;BME280;10212;42.714;23.310;2023-08-31T17:28:41;95091.97;;;19.23;72.81
20105;BME280;10212;42.714;23.310;2023-08-31T17:38:42;95093.00;;;19.12;77.76
20105;BME280;10212;42.714;23.310;2023-08-31T17:48:42;95109.78;;;19.44;74.49
20105;BME280;10212;42.714;23.310;2023-08-31T17:58:45;95132.88;;;19.80;73.69
20105;BME280;10212;42.714;23.310;2023-08-31T18:08:45;95154.84;;;19.75;71.31
20105;BME280;10212;42.714;23.310;2023-08-31T18:18:46;95161.97;;;19.69;70.96
20105;BME280;10212;42.714;23.310;2023-08-31T18:28:47;95162.53;;;19.82;66.97
20105;BME280;10212;42.714;23.310;2023-08-31T18:38:47;95171.09;;;20.05;67.28
20105;BME280;10212;42.714;23.310;2023-08-31T18:48:48;95176.13;;;20.11;67.76
20105;BME280;10212;42.714;23.310;2023-08-31T18:58:48;95186.63;;;19.91;68.62
20105;BME280;10212;42.714;23.310;2023-08-31T19:08:49;95191.63;;;19.82;69.39
20105;BME280;10212;42.714;23.310;2023-08-31T19:18:49;95194.34;;;20.03;68.73
20105;BME280;10212;42.714;23.310;2023-08-31T19:28:50;95207.25;;;19.83;70.05
20105;BME280;10212;42.714;23.310;2023-08-31T19:38:50;95213.25;;;19.58;70.61
20105;BME280;10212;42.714;23.310;2023-08-31T19:48:50;95225.97;;;19.23;71.58
20105;BME280;10212;42.714;23.310;2023-08-31T19:58:51;95230.97;;;19.19;73.11
20105;BME280;10212;42.714;23.310;2023-08-31T20:08:51;95242.31;;;19.14;73.56
20105;BME280;10212;42.714;23.310;2023-08-31T20:18:52;95234.44;;;19.20;71.85
20105;BME280;10212;42.714;23.310;2023-08-31T20:28:52;95243.44;;;19.24;73.04
20105;BME280;10212;42.714;23.310;2023-08-31T20:38:53;95255.34;;;18.94;75.99
20105;BME280;10212;42.714;23.310;2023-08-31T20:48:53;95255.13;;;18.40;79.49
20105;BME280;10212;42.714;23.310;2023-08-31T20:58:54;95274.75;;;18.22;80.53
20105;BME280;10212;42.714;23.310;2023-08-31T21:08:55;95282.69;;;18.04;81.35
20105;BME280;10212;42.714;23.310;2023-08-31T21:18:55;95307.16;;;17.77;83.55
20105;BME280;10212;42.714;23.310;2023-08-31T21:28:58;95313.09;;;17.50;82.86
20105;BME280;10212;42.714;23.310;2023-08-31T21:38:58;95323.09;;;17.48;83.55
20105;BME280;10212;42.714;23.310;2023-08-31T21:48:59;95339.81;;;17.07;83.12
20105;BME280;10212;42.714;23.310;2023-08-31T21:58:59;95331.34;;;16.88;84.60
20105;BME280;10212;42.714;23.310;2023-08-31T22:09:00;95348.88;;;16.82;84.70
20105;BME280;10212;42.714;23.310;2023-08-31T22:19:00;95345.63;;;16.63;86.10
20105;BME280;10212;42.714;23.310;2023-08-31T22:29:01;95352.22;;;16.48;87.22
20105;BME280;10212;42.714;23.310;2023-08-31T22:39:01;95354.81;;;16.60;87.12
20105;BME280;10212;42.714;23.310;2023-08-31T22:49:02;95358.22;;;16.73;86.71
20105;BME280;10212;42.714;23.310;2023-08-31T22:59:03;95370.59;;;16.90;86.23
20105;BME280;10212;42.714;23.310;2023-08-31T23:09:04;95361.75;;;16.67;86.26
20105;BME280;10212;42.714;23.310;2023-08-31T23:19:04;95387.44;;;16.88;85.15
20105;BME280;10212;42.714;23.310;2023-08-31T23:29:05;95390.00;;;16.83;84.15
20105;BME280;10212;42.714;23.310;2023-08-31T23:39:08;95397.88;;;16.83;84.39
20105;BME280;10212;42.714;23.310;2023-08-31T23:49:09;95387.41;;;16.59;84.80
20105;BME280;10212;42.714;23.310;2023-08-31T23:59:09;95405.00;;;16.30;86.21
